Time,TemperatureF,DewpointF,PressureIn,WindDirection,WindDirectionDegrees,WindSpeedMPH,WindSpeedGustMPH,Humidity,HourlyPrecipIn,Conditions,Clouds,dailyrainin,SoftwareType,DateUTC
2013-07-13 00:17:00,73.4,37.0,29.92,WSW,257,11.0,13.0,27,0.00,,,0.00,weatherlink.com 1.10,2013-07-13 07:17:00,
2013-07-13 00:32:00,74.9,39.0,29.91,West,270,13.0,16.0,27,0.00,,,0.00,weatherlink.com 1.10,2013-07-13 07:32:00,
2013-07-13 00:47:00,74.9,37.0,29.92,West,267,7.0,15.0,25,0.00,,,0.00,weatherlink.com 1.10,2013-07-13 07:47:00,
2013-07-13 01:02:00,73.9,36.0,29.92,West,270,7.0,11.0,25,0.00,,,0.00,weatherlink.com 1.10,2013-07-13 08:02:00,
2013-07-13 01:17:00,73.3,36.0,29.91,West,271,8.0,13.0,26,0.00,,,0.00,weatherlink.com 1.10,2013-07-13 08:17:00,
2013-07-13 01:32:00,73.4,39.0,29.91,West,266,8.0,16.0,29,0.00,,,0.00,weatherlink.com 1.10,2013-07-13 08:32:00,
2013-07-13 01:47:00,73.5,40.0,29.91,West,270,7.0,16.0,30,0.00,,,0.00,weatherlink.com 1.10,2013-07-13 08:47:00,
2013-07-13 02:02:00,72.9,40.0,29.91,West,259,6.0,11.0,31,0.00,,,0.00,weatherlink.com 1.10,2013-07-13 09:02:00,
2013-07-13 02:17:00,72.9,40.0,29.91,West,276,10.0,12.0,31,0.00,,,0.00,weatherlink.com 1.10,2013-07-13 09:17:00,
2013-07-13 02:32:00,73.7,40.0,29.91,West,266,7.0,14.0,30,0.00,,,0.00,weatherlink.com 1.10,2013-07-13 09:32:00,
2013-07-13 02:47:00,72.5,41.0,29.90,West,264,6.0,11.0,32,0.00,,,0.00,weatherlink.com 1.10,2013-07-13 09:47:00,
2013-07-13 03:02:00,72.6,42.0,29.90,WSW,245,10.0,13.0,33,0.00,,,0.00,weatherlink.com 1.10,2013-07-13 10:02:00,
2013-07-13 03:17:00,73.1,41.0,29.90,West,267,8.0,15.0,32,0.00,,,0.00,weatherlink.com 1.10,2013-07-13 10:17:00,
2013-07-13 03:32:00,72.7,41.0,29.90,West,269,8.0,13.0,32,0.00,,,0.00,weatherlink.com 1.10,2013-07-13 10:32:00,
2013-07-13 03:47:00,72.3,42.0,29.90,WSW,255,11.0,11.0,33,0.00,,,0.00,weatherlink.com 1.10,2013-07-13 10:47:00,
2013-07-13 04:02:00,72.4,42.0,29.89,West,278,7.0,10.0,33,0.00,,,0.00,weatherlink.com 1.10,2013-07-13 11:02:00,
2013-07-13 04:17:00,72.9,42.0,29.89,WSW,256,6.0,10.0,33,0.00,,,0.00,weatherlink.com 1.10,2013-07-13 11:17:00,
2013-07-13 04:32:00,71.7,42.0,29.89,East,91,0.0,5.0,34,0.00,,,0.00,weatherlink.com 1.10,2013-07-13 11:32:00,
2013-07-13 04:47:00,67.9,43.0,29.89,East,88,1.0,3.0,41,0.00,,,0.00,weatherlink.com 1.10,2013-07-13 11:47:00,
2013-07-13 05:02:00,67.9,43.0,29.89,SSW,207,0.0,2.0,41,0.00,,,0.00,weatherlink.com 1.10,2013-07-13 12:02:00,
2013-07-13 05:17:00,70.6,42.0,29.89,North,355,4.0,9.0,35,0.00,,,0.00,weatherlink.com 1.10,2013-07-13 12:17:00,
2013-07-13 05:32:00,72.0,43.0,29.90,ESE,103,1.0,9.0,35,0.00,,,0.00,weatherlink.com 1.10,2013-07-13 12:32:00,
2013-07-13 05:47:00,69.2,42.0,29.90,ESE,113,1.0,3.0,38,0.00,,,0.00,weatherlink.com 1.10,2013-07-13 12:47:00,
2013-07-13 06:02:00,68.1,43.0,29.91,ESE,118,0.0,2.0,41,0.00,,,0.00,weatherlink.com 1.10,2013-07-13 13:02:00,
2013-07-13 06:17:00,70.9,44.0,29.91,East,96,3.0,3.0,38,0.00,,,0.00,weatherlink.com 1.10,2013-07-13 13:17:00,
2013-07-13 06:32:00,73.5,44.0,29.92,East,85,2.0,2.0,35,0.00,,,0.00,weatherlink.com 1.10,2013-07-13 13:32:00,
2013-07-13 06:47:00,75.1,44.0,29.92,NNE,24,0.0,2.0,33,0.00,,,0.00,weatherlink.com 1.10,2013-07-13 13:47:00,
2013-07-13 07:02:00,76.7,45.0,29.92,NE,36,3.0,4.0,32,0.00,,,0.00,weatherlink.com 1.10,2013-07-13 14:02:00,
2013-07-13 07:17:00,76.4,44.0,29.92,NNW,332,1.0,3.0,32,0.00,,,0.00,weatherlink.com 1.10,2013-07-13 14:17:00,
2013-07-13 07:32:00,76.7,45.0,29.92,NNE,32,4.0,4.0,32,0.00,,,0.00,weatherlink.com 1.10,2013-07-13 14:32:00,
2013-07-13 07:47:00,77.4,44.0,29.93,WNW,303,2.0,6.0,31,0.00,,,0.00,weatherlink.com 1.10,2013-07-13 14:47:00,
2013-07-13 08:02:00,78.4,44.0,29.93,West,265,5.0,11.0,29,0.00,,,0.00,weatherlink.com 1.10,2013-07-13 15:02:00,
2013-07-13 08:17:00,79.4,44.0,29.93,WNW,283,7.0,11.0,28,0.00,,,0.00,weatherlink.com 1.10,2013-07-13 15:17:00,
2013-07-13 08:33:00,80.7,42.0,29.93,WNW,290,6.0,10.0,25,0.00,,,0.00,weatherlink.com 1.10,2013-07-13 15:33:00,
2013-07-13 08:48:00,81.8,41.0,29.93,NW,304,0.0,8.0,23,0.00,,,0.00,weatherlink.com 1.10,2013-07-13 15:48:00,
2013-07-13 09:03:00,83.6,40.0,29.93,WNW,293,2.0,4.0,21,0.00,,,0.00,weatherlink.com 1.10,2013-07-13 16:03:00,
2013-07-13 09:18:00,84.8,38.0,29.93,North,354,1.0,5.0,19,0.00,,,0.00,weatherlink.com 1.10,2013-07-13 16:18:00,
2013-07-13 09:33:00,84.9,38.0,29.93,NW,305,4.0,8.0,19,0.00,,,0.00,weatherlink.com 1.10,2013-07-13 16:33:00,
2013-07-13 09:48:00,85.2,37.0,29.93,WNW,298,5.0,13.0,18,0.00,,,0.00,weatherlink.com 1.10,2013-07-13 16:48:00,
2013-07-13 10:03:00,85.9,38.0,29.93,West,268,7.0,11.0,18,0.00,,,0.00,weatherlink.com 1.10,2013-07-13 17:03:00,
2013-07-13 10:18:00,86.1,38.0,29.92,NW,318,7.0,11.0,18,0.00,,,0.00,weatherlink.com 1.10,2013-07-13 17:18:00,
2013-07-13 10:33:00,87.3,39.0,29.93,NNE,15,3.0,11.0,18,0.00,,,0.00,weatherlink.com 1.10,2013-07-13 17:33:00,
2013-07-13 10:48:00,88.2,40.0,29.93,WNW,284,6.0,12.0,18,0.00,,,0.00,weatherlink.com 1.10,2013-07-13 17:48:00,
2013-07-13 11:03:00,89.6,39.0,29.92,WNW,286,8.0,15.0,17,0.00,,,0.00,weatherlink.com 1.10,2013-07-13 18:03:00,
2013-07-13 11:18:00,88.9,40.0,29.92,NW,314,2.0,9.0,18,0.00,,,0.00,weatherlink.com 1.10,2013-07-13 18:18:00,
2013-07-13 11:33:00,88.8,42.0,29.92,WNW,286,6.0,13.0,19,0.00,,,0.00,weatherlink.com 1.10,2013-07-13 18:33:00,
2013-07-13 11:48:00,89.2,42.0,29.91,WNW,301,6.0,10.0,19,0.00,,,0.00,weatherlink.com 1.10,2013-07-13 18:48:00,
2013-07-13 12:03:00,89.9,42.0,29.91,NW,316,7.0,11.0,19,0.00,,,0.00,weatherlink.com 1.10,2013-07-13 19:03:00,
2013-07-13 12:18:00,89.9,42.0,29.91,WNW,289,7.0,18.0,19,0.00,,,0.00,weatherlink.com 1.10,2013-07-13 19:18:00,
2013-07-13 12:33:00,90.9,42.0,29.91,WSW,258,7.0,14.0,18,0.00,,,0.00,weatherlink.com 1.10,2013-07-13 19:33:00,
2013-07-13 12:48:00,90.4,41.0,29.91,West,275,10.0,16.0,18,0.00,,,0.00,weatherlink.com 1.10,2013-07-13 19:48:00,
2013-07-13 13:03:00,90.8,42.0,29.90,West,266,14.0,18.0,18,0.00,,,0.00,weatherlink.com 1.10,2013-07-13 20:03:00,
2013-07-13 13:18:00,90.0,41.0,29.90,WSW,256,8.0,20.0,18,0.00,,,0.00,weatherlink.com 1.10,2013-07-13 20:18:00,
2013-07-13 13:33:00,89.7,41.0,29.90,WNW,291,11.0,20.0,18,0.00,,,0.00,weatherlink.com 1.10,2013-07-13 20:33:00,
2013-07-13 13:48:00,90.1,41.0,29.90,West,271,12.0,18.0,18,0.00,,,0.00,weatherlink.com 1.10,2013-07-13 20:48:00,
2013-07-13 14:03:00,89.7,41.0,29.90,West,277,8.0,23.0,18,0.00,,,0.00,weatherlink.com 1.10,2013-07-13 21:03:00,
2013-07-13 14:18:00,89.2,42.0,29.89,West,276,8.0,25.0,19,0.00,,,0.00,weatherlink.com 1.10,2013-07-13 21:18:00,
2013-07-13 14:33:00,90.5,44.0,29.89,West,270,9.0,16.0,20,0.00,,,0.00,weatherlink.com 1.10,2013-07-13 21:33:00,
2013-07-13 14:48:00,90.1,44.0,29.89,West,281,9.0,26.0,20,0.00,,,0.00,weatherlink.com 1.10,2013-07-13 21:48:00,
2013-07-13 15:03:00,89.3,43.0,29.89,WNW,292,26.0,26.0,20,0.00,,,0.00,weatherlink.com 1.10,2013-07-13 22:03:00,
2013-07-13 15:18:00,89.7,44.0,29.88,SW,227,9.0,27.0,20,0.00,,,0.00,weatherlink.com 1.10,2013-07-13 22:18:00,
2013-07-13 15:33:00,90.0,43.0,29.88,West,281,13.0,19.0,19,0.00,,,0.00,weatherlink.com 1.10,2013-07-13 22:33:00,
2013-07-13 15:48:00,90.2,41.0,29.87,West,262,7.0,16.0,18,0.00,,,0.00,weatherlink.com 1.10,2013-07-13 22:48:00,
2013-07-13 16:03:00,89.7,39.0,29.86,WSW,248,11.0,19.0,17,0.00,,,0.00,weatherlink.com 1.10,2013-07-13 23:03:00,
2013-07-13 16:18:00,89.7,38.0,29.86,WSW,255,11.0,19.0,16,0.00,,,0.00,weatherlink.com 1.10,2013-07-13 23:18:00,
2013-07-13 16:33:00,89.5,36.0,29.86,WNW,288,13.0,22.0,15,0.00,,,0.00,weatherlink.com 1.10,2013-07-13 23:33:00,
2013-07-13 16:48:00,89.3,38.0,29.85,West,269,11.0,24.0,16,0.00,,,0.00,weatherlink.com 1.10,2013-07-13 23:48:00,
2013-07-13 17:03:00,88.6,40.0,29.85,WSW,240,16.0,19.0,18,0.00,,,0.00,weatherlink.com 1.10,2013-07-14 00:03:00,
2013-07-13 17:18:00,88.4,38.0,29.85,WSW,255,8.0,21.0,17,0.00,,,0.00,weatherlink.com 1.10,2013-07-14 00:18:00,
2013-07-13 17:33:00,88.1,40.0,29.85,West,278,14.0,21.0,18,0.00,,,0.00,weatherlink.com 1.10,2013-07-14 00:33:00,
2013-07-13 17:48:00,88.5,40.0,29.85,West,272,18.0,19.0,18,0.00,,,0.00,weatherlink.com 1.10,2013-07-14 00:48:00,
2013-07-13 18:03:00,87.6,39.0,29.84,West,264,12.0,18.0,18,0.00,,,0.00,weatherlink.com 1.10,2013-07-14 01:03:00,
2013-07-13 18:19:00,87.0,39.0,29.85,SW,226,8.0,16.0,18,0.00,,,0.00,weatherlink.com 1.10,2013-07-14 01:19:00,
2013-07-13 18:34:00,86.4,41.0,29.85,West,264,11.0,16.0,20,0.00,,,0.00,weatherlink.com 1.10,2013-07-14 01:34:00,
2013-07-13 18:49:00,85.7,41.0,29.86,West,263,10.0,13.0,21,0.00,,,0.00,weatherlink.com 1.10,2013-07-14 01:49:00,
2013-07-13 19:04:00,85.4,42.0,29.86,West,264,9.0,11.0,22,0.00,,,0.00,weatherlink.com 1.10,2013-07-14 02:04:00,
2013-07-13 19:19:00,85.4,41.0,29.86,West,276,6.0,16.0,21,0.00,,,0.00,weatherlink.com 1.10,2013-07-14 02:19:00,
2013-07-13 19:34:00,84.5,40.0,29.86,WSW,249,11.0,13.0,21,0.00,,,0.00,weatherlink.com 1.10,2013-07-14 02:34:00,
2013-07-13 19:49:00,83.6,39.0,29.86,NW,310,9.0,19.0,20,0.00,,,0.00,weatherlink.com 1.10,2013-07-14 02:49:00,
2013-07-13 20:04:00,82.6,40.0,29.86,West,277,6.0,14.0,22,0.00,,,0.00,weatherlink.com 1.10,2013-07-14 03:04:00,
2013-07-13 20:19:00,81.8,38.0,29.87,WNW,290,9.0,16.0,21,0.00,,,0.00,weatherlink.com 1.10,2013-07-14 03:19:00,
2013-07-13 20:34:00,81.5,38.0,29.87,WSW,253,11.0,15.0,21,0.00,,,0.00,weatherlink.com 1.10,2013-07-14 03:34:00,
2013-07-13 20:49:00,81.2,38.0,29.87,WNW,288,6.0,16.0,21,0.00,,,0.00,weatherlink.com 1.10,2013-07-14 03:49:00,
2013-07-13 21:04:00,80.8,37.0,29.88,WNW,287,10.0,16.0,21,0.00,,,0.00,weatherlink.com 1.10,2013-07-14 04:04:00,
2013-07-13 21:19:00,80.4,38.0,29.89,WNW,293,5.0,13.0,22,0.00,,,0.00,weatherlink.com 1.10,2013-07-14 04:19:00,
2013-07-13 21:34:00,80.1,38.0,29.89,WNW,284,10.0,15.0,22,0.00,,,0.00,weatherlink.com 1.10,2013-07-14 04:34:00,
2013-07-13 21:49:00,80.0,38.0,29.89,West,270,10.0,16.0,22,0.00,,,0.00,weatherlink.com 1.10,2013-07-14 04:49:00,
2013-07-13 22:04:00,79.9,38.0,29.89,WNW,283,7.0,15.0,22,0.00,,,0.00,weatherlink.com 1.10,2013-07-14 05:04:00,
2013-07-13 22:19:00,79.9,37.0,29.90,West,265,12.0,16.0,21,0.00,,,0.00,weatherlink.com 1.10,2013-07-14 05:19:00,
2013-07-13 22:34:00,80.0,37.0,29.90,WNW,282,7.0,16.0,21,0.00,,,0.00,weatherlink.com 1.10,2013-07-14 05:34:00,
2013-07-13 22:49:00,79.9,35.0,29.90,WSW,256,13.0,14.0,20,0.00,,,0.00,weatherlink.com 1.10,2013-07-14 05:49:00,
2013-07-13 23:04:00,79.8,35.0,29.90,West,276,9.0,13.0,20,0.00,,,0.00,weatherlink.com 1.10,2013-07-14 06:04:00,
2013-07-13 23:19:00,80.2,36.0,29.90,WSW,257,10.0,19.0,20,0.00,,,0.00,weatherlink.com 1.10,2013-07-14 06:19:00,
2013-07-13 23:34:00,80.0,35.0,29.90,West,278,6.0,14.0,20,0.00,,,0.00,weatherlink.com 1.10,2013-07-14 06:34:00,
2013-07-13 23:49:00,79.8,35.0,29.90,WNW,283,3.0,10.0,20,0.00,,,0.00,weatherlink.com 1.10,2013-07-14 06:49:00,